createdAt,value
2022-12-06T00:00:36.473Z,102193.19
2022-12-06T00:03:39.468Z,102194.81
2022-12-06T00:06:44.753Z,102200.47
2022-12-06T00:09:47.357Z,102196.81
2022-12-06T00:12:50.020Z,102207.31
2022-12-06T00:15:52.674Z,102205.66
2022-12-06T00:18:55.410Z,102205.22
2022-12-06T00:21:59.419Z,102189.50
2022-12-06T00:25:02.080Z,102200.38
2022-12-06T00:28:04.876Z,102199.56
2022-12-06T00:31:08.314Z,102189.50
2022-12-06T00:34:10.985Z,102186.69
2022-12-06T00:37:14.991Z,102190.69
2022-12-06T00:40:17.706Z,102183.41
2022-12-06T00:43:20.347Z,102194.69
2022-12-06T00:46:24.184Z,102189.06
2022-12-06T00:49:26.867Z,102187.88
2022-12-06T00:52:30.890Z,102189.06
2022-12-06T00:55:33.496Z,102177.75
2022-12-06T00:58:36.135Z,102187.41
2022-12-06T01:01:38.828Z,102191.44
2022-12-06T01:04:41.461Z,102185.78
2022-12-06T01:07:45.529Z,102184.97
2022-12-06T01:10:52.765Z,102184.16
2022-12-06T01:13:55.158Z,102188.19
2022-12-06T01:16:57.788Z,102183.28
2022-12-06T01:20:00.683Z,102187.25
2022-12-06T01:23:04.761Z,102186.09
2022-12-06T01:26:07.545Z,102180.47
2022-12-06T01:29:10.579Z,102183.28
2022-12-06T01:32:13.150Z,102172.00
2022-12-06T01:35:15.783Z,102182.09
2022-12-06T01:38:19.629Z,102183.72
2022-12-06T01:41:22.973Z,102173.63
2022-12-06T01:44:43.177Z,102173.63
2022-12-06T01:47:45.753Z,102184.94
2022-12-06T01:50:48.254Z,102184.94
2022-12-06T01:53:52.089Z,102176.47
2022-12-06T01:56:55.017Z,102175.63
2022-12-06T01:59:57.737Z,102173.63
2022-12-06T02:03:00.636Z,102166.34
2022-12-06T02:06:04.181Z,102170.34
2022-12-06T02:09:08.680Z,102176.78
2022-12-06T02:12:12.806Z,102169.19
2022-12-06T02:15:15.393Z,102162.34
2022-12-06T02:18:20.424Z,102169.63
2022-12-06T02:21:27.231Z,102162.34
2022-12-06T02:24:59.968Z,102168.00
2022-12-06T02:28:22.552Z,102169.63
2022-12-06T02:31:27.605Z,102160.72
2022-12-06T02:34:31.970Z,102161.16
2022-12-06T02:37:36.311Z,102168.00
2022-12-06T02:40:40.621Z,102147.63
2022-12-06T02:43:44.730Z,102169.63
2022-12-06T02:46:48.662Z,102155.13
2022-12-06T02:49:54.541Z,102158.34
2022-12-06T02:52:57.036Z,102158.34
2022-12-06T02:55:59.542Z,102164.41
2022-12-06T02:59:02.017Z,102163.22
2022-12-06T03:02:07.093Z,102160.38
2022-12-06T03:05:11.507Z,102147.88
2022-12-06T03:08:16.684Z,102151.09
2022-12-06T03:11:19.269Z,102152.38
2022-12-06T03:14:23.361Z,102149.53
2022-12-06T03:17:30.382Z,102139.88
2022-12-06T03:20:42.423Z,102142.63
2022-12-06T03:23:46.691Z,102145.53
2022-12-06T03:26:49.944Z,102148.75
2022-12-06T03:29:54.554Z,102160.06
2022-12-06T03:32:58.389Z,102160.06
2022-12-06T03:36:00.885Z,102156.03
2022-12-06T03:39:04.525Z,102150.41
2022-12-06T03:42:07.294Z,102154.84
2022-12-06T03:45:11.575Z,102152.81
2022-12-06T03:48:16.197Z,102162.13
2022-12-06T03:51:20.469Z,102156.03
2022-12-06T03:54:23.010Z,102155.31
2022-12-06T03:57:25.614Z,102153.28
2022-12-06T04:00:28.167Z,102152.47
2022-12-06T04:03:32.156Z,102151.28
2022-12-06T04:06:34.742Z,102151.28
2022-12-06T04:10:02.887Z,102156.94
2022-12-06T04:13:06.173Z,102156.94
2022-12-06T04:16:29.046Z,102152.91
2022-12-06T04:19:31.957Z,102157.34
2022-12-06T04:22:52.123Z,102151.28
2022-12-06T04:25:54.658Z,102154.53
2022-12-06T04:29:14.804Z,102155.34
2022-12-06T04:32:34.945Z,102154.53
2022-12-06T04:35:56.637Z,102151.72
2022-12-06T04:38:59.185Z,102146.06
2022-12-06T04:42:19.090Z,102132.59
2022-12-06T04:45:21.622Z,102144.88
2022-12-06T04:48:24.172Z,102142.03
2022-12-06T04:51:28.115Z,102146.50
2022-12-06T04:54:31.207Z,102140.84
2022-12-06T04:57:33.705Z,102142.50
2022-12-06T05:00:36.354Z,102137.66
2022-12-06T05:03:44.177Z,102140.09
2022-12-06T05:06:48.472Z,102130.41
2022-12-06T05:09:50.989Z,102133.25
2022-12-06T05:12:53.533Z,102134.88
2022-12-06T05:15:57.048Z,102134.88
2022-12-06T05:18:59.600Z,102133.69
2022-12-06T05:22:03.523Z,102129.69
2022-12-06T05:25:06.469Z,102131.31
2022-12-06T05:28:09.787Z,102133.31
2022-12-06T05:31:12.557Z,102132.91
2022-12-06T05:34:15.088Z,102138.16
2022-12-06T05:37:18.961Z,102134.53
2022-12-06T05:40:21.518Z,102132.91
2022-12-06T05:43:24.002Z,102134.53
2022-12-06T05:46:26.543Z,102134.53
2022-12-06T05:49:29.169Z,102130.53
2022-12-06T05:52:33.038Z,102136.19
2022-12-06T05:55:35.583Z,102137.00
2022-12-06T05:58:38.156Z,102139.44
2022-12-06T06:01:40.748Z,102131.34
2022-12-06T06:04:43.313Z,102130.97
2022-12-06T06:07:47.468Z,102133.78
2022-12-06T06:10:50.146Z,102134.63
2022-12-06T06:13:54.383Z,102134.63
2022-12-06T06:16:56.987Z,102137.81
2022-12-06T06:19:59.667Z,102141.91
2022-12-06T06:23:03.649Z,102141.06
2022-12-06T06:26:08.225Z,102141.50
2022-12-06T06:29:10.735Z,102138.66
2022-12-06T06:32:13.680Z,102127.38
2022-12-06T06:35:16.324Z,102130.19
2022-12-06T06:38:20.174Z,102123.34
2022-12-06T06:41:22.719Z,102117.72
2022-12-06T06:44:25.271Z,102131.81
2022-12-06T06:47:27.774Z,102120.97
2022-12-06T06:50:30.277Z,102120.16
2022-12-06T06:53:34.115Z,102115.31
2022-12-06T06:56:36.617Z,102112.13
2022-12-06T06:59:39.164Z,102114.53
2022-12-06T07:02:41.774Z,102108.91
2022-12-06T07:05:44.545Z,102116.19
2022-12-06T07:08:48.572Z,102116.19
2022-12-06T07:11:51.122Z,102116.19
2022-12-06T07:14:53.672Z,102107.72
2022-12-06T07:17:56.168Z,102110.53
2022-12-06T07:20:59.758Z,102110.53
2022-12-06T07:24:03.599Z,102119.00
2022-12-06T07:27:06.152Z,102116.19
2022-12-06T07:30:13.216Z,102114.53
2022-12-06T07:33:18.356Z,102120.19
2022-12-06T07:36:22.706Z,102118.59
2022-12-06T07:39:26.977Z,102118.59
2022-12-06T07:42:46.988Z,102122.59
2022-12-06T07:45:49.525Z,102132.28
2022-12-06T07:48:52.069Z,102132.28
2022-12-06T07:51:54.698Z,102133.91
2022-12-06T07:54:58.542Z,102136.72
2022-12-06T07:58:01.083Z,102136.72
2022-12-06T08:01:04.243Z,102139.56
2022-12-06T08:04:06.958Z,102145.19
2022-12-06T08:07:09.497Z,102147.59
2022-12-06T08:10:13.489Z,102144.38
2022-12-06T08:13:16.029Z,102139.56
2022-12-06T08:16:18.675Z,102134.72
2022-12-06T08:19:21.368Z,102140.38
2022-12-06T08:22:23.919Z,102135.53
2022-12-06T08:25:27.755Z,102139.97
2022-12-06T08:28:30.582Z,102142.78
2022-12-06T08:31:34.536Z,102131.50
2022-12-06T08:34:37.085Z,102137.13
2022-12-06T08:37:39.570Z,102134.31
2022-12-06T08:40:43.463Z,102144.41
2022-12-06T08:43:45.973Z,102135.94
2022-12-06T08:46:48.734Z,102143.59
2022-12-06T08:49:51.407Z,102141.59
2022-12-06T08:52:54.130Z,102141.97
2022-12-06T08:56:02.574Z,102147.25
2022-12-06T08:59:07.005Z,102142.78
2022-12-06T09:02:10.886Z,102133.91
2022-12-06T09:05:13.516Z,102141.97
2022-12-06T09:08:16.156Z,102137.13
2022-12-06T09:11:20.171Z,102137.13
2022-12-06T09:14:22.973Z,102141.19
2022-12-06T09:17:25.481Z,102144.00
2022-12-06T09:20:27.971Z,102141.97
2022-12-06T09:23:30.510Z,102153.25
2022-12-06T09:26:34.428Z,102141.19
2022-12-06T09:29:40.520Z,102135.53
2022-12-06T09:32:43.491Z,102128.25
2022-12-06T09:35:46.034Z,102135.91
2022-12-06T09:38:49.033Z,102136.72
2022-12-06T09:42:12.109Z,102139.56
2022-12-06T09:45:26.099Z,102145.19
2022-12-06T09:48:54.299Z,102156.50
2022-12-06T09:52:13.727Z,102166.16
2022-12-06T09:55:22.142Z,102151.59
2022-12-06T09:58:33.054Z,102155.22
2022-12-06T10:01:42.975Z,102146.75
2022-12-06T10:04:57.210Z,102145.94
2022-12-06T10:08:04.295Z,102147.94
2022-12-06T10:11:09.705Z,102140.31
2022-12-06T10:14:20.184Z,102134.66
2022-12-06T10:17:25.878Z,102135.44
2022-12-06T10:20:31.419Z,102129.38
2022-12-06T10:23:40.527Z,102140.31
2022-12-06T10:26:46.596Z,102131.81
2022-12-06T10:29:55.669Z,102134.66
2022-12-06T10:33:05.208Z,102124.19
2022-12-06T10:36:08.733Z,102124.19
2022-12-06T10:39:16.381Z,102112.84
2022-12-06T10:42:23.594Z,102121.72
2022-12-06T10:45:46.003Z,102119.34
2022-12-06T10:48:52.098Z,102112.84
2022-12-06T10:51:57.150Z,102105.56
2022-12-06T10:55:05.616Z,102112.84
2022-12-06T10:58:10.801Z,102105.97
2022-12-06T11:01:16.925Z,102098.28
2022-12-06T11:04:22.263Z,102102.41
2022-12-06T11:07:25.352Z,102106.41
2022-12-06T11:10:28.671Z,102098.38
2022-12-06T11:13:35.236Z,102098.38
2022-12-06T11:16:40.856Z,102100.03
2022-12-06T11:19:44.747Z,102097.19
2022-12-06T11:22:49.303Z,102096.00
2022-12-06T11:26:02.572Z,102087.53
2022-12-06T11:29:06.299Z,102087.09
2022-12-06T11:32:10.228Z,102091.97
2022-12-06T11:35:13.590Z,102076.63
2022-12-06T11:38:16.133Z,102079.84
2022-12-06T11:41:20.676Z,102077.47
2022-12-06T11:44:25.477Z,102066.13
2022-12-06T11:47:29.405Z,102065.34
2022-12-06T11:50:32.083Z,102070.63
2022-12-06T11:53:38.024Z,102071.44
2022-12-06T11:56:40.563Z,102064.97
2022-12-06T11:59:43.144Z,102068.63
2022-12-06T12:02:48.018Z,102070.25
2022-12-06T12:05:50.663Z,102070.25
2022-12-06T12:08:55.450Z,102063.78
2022-12-06T12:12:01.974Z,102058.06
2022-12-06T12:15:05.038Z,102067.41
2022-12-06T12:18:21.859Z,102061.34
2022-12-06T12:21:40.856Z,102054.06
2022-12-06T12:28:24.493Z,102048.78
2022-12-06T12:31:27.234Z,102041.91
2022-12-06T12:34:31.520Z,102046.69
2022-12-06T12:37:34.047Z,102037.81
2022-12-06T12:40:37.856Z,102029.75
2022-12-06T12:43:40.427Z,102035.38
2022-12-06T12:46:43.516Z,102029.34
2022-12-06T12:49:59.338Z,102037.03
2022-12-06T12:53:01.884Z,102022.06
2022-12-06T12:56:08.153Z,102034.19
2022-12-06T12:59:14.575Z,102025.72
2022-12-06T13:02:21.691Z,102031.38
2022-12-06T13:05:35.616Z,102022.09
2022-12-06T13:08:39.362Z,102022.50
2022-12-06T13:11:44.098Z,102022.50
2022-12-06T13:14:51.965Z,102016.03
2022-12-06T13:17:59.633Z,102015.22
2022-12-06T13:21:07.912Z,102015.22
2022-12-06T13:24:16.378Z,102002.28
2022-12-06T13:27:19.825Z,101997.41
2022-12-06T13:30:23.373Z,102005.13
2022-12-06T13:33:26.726Z,101998.66
2022-12-06T13:36:32.274Z,102001.47
2022-12-06T13:39:39.673Z,101995.00
2022-12-06T13:42:45.393Z,101993.00
2022-12-06T13:45:48.388Z,101986.09
2022-12-06T13:48:51.661Z,101990.16
2022-12-06T13:51:55.581Z,101999.03
2022-12-06T13:54:58.200Z,101998.19
2022-12-06T13:58:34.246Z,101990.97
2022-12-06T14:01:40.651Z,101991.34
2022-12-06T14:04:43.381Z,101991.34
2022-12-06T14:07:47.396Z,101986.88
2022-12-06T14:10:50.001Z,101986.88
2022-12-06T14:14:01.971Z,101986.88
2022-12-06T14:17:05.893Z,101979.59
2022-12-06T14:20:18.817Z,101979.63
2022-12-06T14:23:27.853Z,101983.63
2022-12-06T14:26:31.804Z,101977.16
2022-12-06T14:29:34.412Z,101976.34
2022-12-06T14:32:39.010Z,101967.47
2022-12-06T14:35:41.777Z,101963.47
2022-12-06T14:38:51.105Z,101969.09
2022-12-06T14:42:11.894Z,101961.00
2022-12-06T14:45:15.714Z,101965.84
2022-12-06T14:48:18.280Z,101959.38
2022-12-06T14:51:23.373Z,101954.56
2022-12-06T14:54:42.269Z,101944.00
2022-12-06T14:57:46.241Z,101939.16
2022-12-06T15:00:50.445Z,101932.72
2022-12-06T15:03:59.721Z,101938.38
2022-12-06T15:07:02.429Z,101932.72
2022-12-06T15:10:34.593Z,101952.06
2022-12-06T15:13:37.201Z,101957.72
2022-12-06T15:16:39.931Z,101943.16
2022-12-06T15:19:45.957Z,101944.81
2022-12-06T15:22:48.480Z,101940.34
2022-12-06T15:25:52.458Z,101937.53
2022-12-06T15:28:54.985Z,101942.34
2022-12-06T15:31:57.577Z,101931.84
2022-12-06T15:35:00.164Z,101932.25
2022-12-06T15:38:02.872Z,101939.91
2022-12-06T15:41:06.962Z,101933.44
2022-12-06T15:44:11.509Z,101938.31
2022-12-06T15:47:14.088Z,101938.31
2022-12-06T15:50:16.785Z,101934.69
2022-12-06T15:53:23.117Z,101923.75
2022-12-06T15:56:29.268Z,101935.06
2022-12-06T15:59:31.858Z,101939.06
2022-12-06T16:02:35.007Z,101939.06
2022-12-06T16:05:37.611Z,101927.78
2022-12-06T16:08:40.178Z,101939.44
2022-12-06T16:11:44.189Z,101943.09
2022-12-06T16:14:47.005Z,101937.44
2022-12-06T16:17:49.540Z,101930.16
2022-12-06T16:20:52.105Z,101935.81
2022-12-06T16:24:13.012Z,101926.94
2022-12-06T16:27:17.953Z,101925.75
2022-12-06T16:30:31.822Z,101925.75
2022-12-06T16:33:34.407Z,101912.81
2022-12-06T16:36:37.164Z,101907.56
2022-12-06T16:39:39.706Z,101921.28
2022-12-06T16:42:43.612Z,101918.47
2022-12-06T16:45:46.793Z,101908.38
2022-12-06T16:48:55.313Z,101913.63
2022-12-06T16:51:58.068Z,101907.19
2022-12-06T16:55:00.832Z,101902.72
2022-12-06T16:58:04.934Z,101904.34
2022-12-06T17:01:23.674Z,101904.34
2022-12-06T17:04:26.729Z,101902.72
2022-12-06T17:07:29.344Z,101895.44
2022-12-06T17:10:31.917Z,101884.16
2022-12-06T17:13:35.807Z,101889.81
2022-12-06T17:16:38.872Z,101889.81
2022-12-06T17:19:42.113Z,101892.63
2022-12-06T17:22:44.661Z,101884.16
2022-12-06T17:25:47.253Z,101886.13
2022-12-06T17:28:51.149Z,101889.81
2022-12-06T17:31:53.914Z,101884.16
2022-12-06T17:34:56.529Z,101878.53
2022-12-06T17:38:00.851Z,101884.16
2022-12-06T17:41:24.192Z,101872.88
2022-12-06T17:44:28.210Z,101878.53
2022-12-06T17:47:31.174Z,101879.34
2022-12-06T17:50:34.045Z,101877.69
2022-12-06T17:53:36.606Z,101884.16
2022-12-06T17:56:39.968Z,101878.53
2022-12-06T17:59:44.051Z,101878.53
2022-12-06T18:02:48.592Z,101882.16
2022-12-06T18:05:51.398Z,101876.84
2022-12-06T18:08:54.021Z,101878.53
2022-12-06T18:11:56.766Z,101880.16
2022-12-06T18:15:01.176Z,101892.63
2022-12-06T18:18:03.921Z,101890.63
2022-12-06T18:21:06.755Z,101895.88
2022-12-06T18:24:21.494Z,101885.78
2022-12-06T18:27:24.941Z,101878.53
2022-12-06T18:30:28.870Z,101891.44
2022-12-06T18:33:32.254Z,101877.34
2022-12-06T18:36:34.841Z,101885.78
2022-12-06T18:39:37.411Z,101880.16
2022-12-06T18:42:39.936Z,101882.16
2022-12-06T18:45:43.905Z,101889.06
2022-12-06T18:48:48.131Z,101881.78
2022-12-06T18:51:50.674Z,101883.41
2022-12-06T18:54:53.222Z,101889.06
2022-12-06T18:57:55.766Z,101877.69
2022-12-06T19:00:59.694Z,101889.06
2022-12-06T19:04:03.047Z,101886.22
2022-12-06T19:07:05.774Z,101889.06
2022-12-06T19:10:09.672Z,101889.06
2022-12-06T19:13:12.276Z,101896.28
2022-12-06T19:16:16.372Z,101896.28
2022-12-06T19:19:20.110Z,101894.69
2022-12-06T19:22:22.654Z,101890.66
2022-12-06T19:25:25.176Z,101903.56
2022-12-06T19:28:27.768Z,101892.28
2022-12-06T19:31:31.656Z,101899.56
2022-12-06T19:34:34.282Z,101891.09
2022-12-06T19:37:37.233Z,101882.63
2022-12-06T19:40:41.987Z,101888.28
2022-12-06T19:44:01.992Z,101896.72
2022-12-06T19:47:06.002Z,101900.75
2022-12-06T19:50:09.804Z,101895.53
2022-12-06T19:53:12.374Z,101902.81
2022-12-06T19:56:16.116Z,101902.81
2022-12-06T19:59:18.676Z,101895.53
2022-12-06T20:02:22.661Z,101908.88
2022-12-06T20:05:25.253Z,101908.50
2022-12-06T20:08:27.802Z,101909.31
2022-12-06T20:11:47.869Z,101908.53
2022-12-06T20:14:50.464Z,101904.50
2022-12-06T20:17:54.444Z,101898.47
2022-12-06T20:20:57.135Z,101892.44
2022-12-06T20:24:00.178Z,101896.47
2022-12-06T20:27:02.821Z,101895.72
2022-12-06T20:30:06.530Z,101894.50
2022-12-06T20:33:10.461Z,101900.56
2022-12-06T20:36:13.271Z,101902.19
2022-12-06T20:39:20.274Z,101894.94
2022-12-06T20:42:22.883Z,101895.34
2022-12-06T20:45:25.434Z,101890.94
2022-12-06T20:48:29.352Z,101899.03
2022-12-06T20:51:32.453Z,101899.84
2022-12-06T20:54:35.115Z,101896.19
2022-12-06T20:57:38.226Z,101892.63
2022-12-06T21:00:40.813Z,101881.31
2022-12-06T21:03:44.699Z,101888.56
2022-12-06T21:06:47.275Z,101889.38
2022-12-06T21:09:49.881Z,101889.38
